createdAt,value
2022-11-13T00:01:23.501Z,5.97
2022-11-13T00:04:15.363Z,3.35
2022-11-13T00:07:02.075Z,4.72
2022-11-13T00:09:48.505Z,3.67
2022-11-13T00:12:37.106Z,3.70
2022-11-13T00:15:23.492Z,3.92
2022-11-13T00:18:10.593Z,2.83
2022-11-13T00:20:58.449Z,5.68
2022-11-13T00:23:52.621Z,3.90
2022-11-13T00:26:39.934Z,5.37
2022-11-13T00:29:26.110Z,4.65
2022-11-13T00:32:12.079Z,5.93
2022-11-13T00:34:58.148Z,2.28
2022-11-13T00:37:44.326Z,2.80
2022-11-13T00:40:30.381Z,2.80
2022-11-13T00:43:16.478Z,5.32
2022-11-13T00:46:02.453Z,3.25
2022-11-13T00:48:44.381Z,2.87
2022-11-13T00:52:09.547Z,3.83
2022-11-13T00:54:51.466Z,2.85
2022-11-13T01:06:01.650Z,4.20
2022-11-13T01:08:48.286Z,3.72
2022-11-13T01:11:34.506Z,5.00
2022-11-13T01:14:20.666Z,2.20
2022-11-13T01:17:07.497Z,2.28
2022-11-13T01:20:36.472Z,5.28
2022-11-13T01:23:22.422Z,4.40
2022-11-13T01:30:24.539Z,3.80
2022-11-13T01:33:09.443Z,4.45
2022-11-13T01:35:51.378Z,2.83
2022-11-13T01:43:32.602Z,5.22
2022-11-13T01:46:35.818Z,2.25
2022-11-13T01:49:29.347Z,6.00
2022-11-13T01:56:57.771Z,3.12
2022-11-13T01:59:48.428Z,4.75
2022-11-13T02:02:34.377Z,2.53
2022-11-13T02:05:21.006Z,3.42
2022-11-13T02:08:06.869Z,2.67
2022-11-13T02:10:52.925Z,3.60
2022-11-13T02:13:39.017Z,2.72
2022-11-13T02:16:24.846Z,0.73
2022-11-13T02:19:17.792Z,3.65
2022-11-13T02:22:20.424Z,3.50
2022-11-13T02:25:07.644Z,1.33
2022-11-13T02:27:53.695Z,3.55
2022-11-13T02:30:39.473Z,1.35
2022-11-13T02:33:30.952Z,2.30
2022-11-13T02:36:16.929Z,2.78
2022-11-13T02:39:06.828Z,5.15
2022-11-13T02:41:52.598Z,4.03
2022-11-13T02:44:38.731Z,3.92
2022-11-13T02:47:24.745Z,3.12
2022-11-13T02:50:11.703Z,2.33
2022-11-13T02:52:57.832Z,4.05
2022-11-13T02:55:43.850Z,4.07
2022-11-13T02:58:30.458Z,3.37
2022-11-13T03:01:17.057Z,2.55
2022-11-13T03:04:02.849Z,1.20
2022-11-13T03:06:48.993Z,1.58
2022-11-13T03:09:35.303Z,2.72
2022-11-13T03:16:36.625Z,1.65
2022-11-13T03:19:27.292Z,1.90
2022-11-13T03:22:13.310Z,2.17
2022-11-13T03:24:55.377Z,2.65
2022-11-13T03:27:37.404Z,1.48
2022-11-13T03:30:19.518Z,2.58
2022-11-13T03:33:01.410Z,2.80
2022-11-13T03:35:46.949Z,4.03
2022-11-13T03:38:25.814Z,3.20
2022-11-13T03:41:14.909Z,2.10
2022-11-13T03:43:57.374Z,2.37
2022-11-13T03:46:39.364Z,4.07
2022-11-13T03:49:21.365Z,1.58
2022-11-13T03:52:10.876Z,2.35
2022-11-13T03:54:58.122Z,1.85
2022-11-13T03:57:44.162Z,3.97
2022-11-13T04:00:30.385Z,2.47
2022-11-13T04:03:16.235Z,2.65
2022-11-13T04:06:02.407Z,1.02
2022-11-13T04:08:48.426Z,2.25
2022-11-13T04:11:34.469Z,2.92
2022-11-13T04:15:05.649Z,2.10
2022-11-13T04:17:51.503Z,3.55
2022-11-13T04:20:37.510Z,3.33
2022-11-13T04:23:23.476Z,2.55
2022-11-13T04:26:09.780Z,1.55
2022-11-13T04:28:55.814Z,1.90
2022-11-13T04:31:41.874Z,1.92
2022-11-13T04:34:28.114Z,2.60
2022-11-13T04:37:14.378Z,2.67
2022-11-13T04:40:00.302Z,1.15
2022-11-13T04:42:49.167Z,3.17
2022-11-13T04:45:35.358Z,2.42
2022-11-13T04:48:21.237Z,1.23
2022-11-13T04:51:07.404Z,2.35
2022-11-13T04:53:53.514Z,0.82
2022-11-13T04:56:39.750Z,2.47
2022-11-13T04:59:25.851Z,2.75
2022-11-13T05:02:11.911Z,1.02
2022-11-13T05:05:03.376Z,2.47
2022-11-13T05:07:50.911Z,2.08
2022-11-13T05:10:37.143Z,2.62
2022-11-13T05:13:23.022Z,3.30
2022-11-13T05:16:11.369Z,1.45
2022-11-13T05:23:18.915Z,1.23
2022-11-13T05:26:10.674Z,2.17
2022-11-13T05:28:58.534Z,1.67
2022-11-13T05:31:44.628Z,2.10
2022-11-13T05:34:30.763Z,1.00
2022-11-13T05:37:17.335Z,2.72
2022-11-13T05:40:04.083Z,1.42
2022-11-13T05:42:50.124Z,1.35
2022-11-13T05:45:36.414Z,1.85
2022-11-13T05:48:22.402Z,1.20
2022-11-13T05:51:14.700Z,0.68
2022-11-13T05:54:01.402Z,1.37
2022-11-13T05:56:47.560Z,1.17
2022-11-13T05:59:33.550Z,1.40
2022-11-13T06:02:19.963Z,2.10
2022-11-13T06:05:06.548Z,0.80
2022-11-13T06:07:52.494Z,1.20
2022-11-13T06:10:39.284Z,1.52
2022-11-13T06:13:25.454Z,0.50
2022-11-13T06:16:16.161Z,0.32
2022-11-13T06:19:04.952Z,1.65
2022-11-13T06:21:51.606Z,1.37
2022-11-13T06:24:37.742Z,1.30
2022-11-13T06:27:40.063Z,2.05
2022-11-13T06:30:26.211Z,1.85
2022-11-13T06:33:12.402Z,0.45
2022-11-13T06:35:58.410Z,0.43
2022-11-13T06:38:45.025Z,1.20
2022-11-13T06:41:31.492Z,1.70
2022-11-13T06:44:17.311Z,2.10
2022-11-13T06:47:03.697Z,2.00
2022-11-13T06:49:49.734Z,0.57
2022-11-13T06:52:35.881Z,1.33
2022-11-13T06:55:22.114Z,1.62
2022-11-13T06:58:08.570Z,2.20
2022-11-13T07:00:55.396Z,2.37
2022-11-13T07:03:37.859Z,2.03
2022-11-13T07:06:22.470Z,1.70
2022-11-13T07:09:08.498Z,1.98
2022-11-13T07:11:54.569Z,2.50
2022-11-13T07:14:40.772Z,2.20
2022-11-13T07:17:28.747Z,3.33
2022-11-13T07:20:16.206Z,2.78
2022-11-13T07:23:03.206Z,2.45
2022-11-13T07:25:49.792Z,1.80
2022-11-13T07:28:35.489Z,2.58
2022-11-13T07:31:22.100Z,2.03
2022-11-13T07:34:07.995Z,3.92
2022-11-13T07:36:54.026Z,2.42
2022-11-13T07:39:40.128Z,3.80
2022-11-13T07:42:26.359Z,1.12
2022-11-13T07:45:12.413Z,2.53
2022-11-13T07:48:02.620Z,2.08
2022-11-13T07:50:48.842Z,0.43
2022-11-13T07:53:36.022Z,2.97
2022-11-13T07:56:23.419Z,2.20
2022-11-13T07:59:09.603Z,1.50
2022-11-13T08:01:51.633Z,1.12
2022-11-13T08:04:38.652Z,2.30
2022-11-13T08:07:27.293Z,2.17
2022-11-13T08:10:16.947Z,2.70
2022-11-13T08:13:10.563Z,1.33
2022-11-13T08:15:59.415Z,1.08
2022-11-13T08:18:45.366Z,5.18
2022-11-13T08:21:31.525Z,3.58
2022-11-13T08:24:17.472Z,2.80
2022-11-13T08:27:08.782Z,5.87
2022-11-13T08:29:55.077Z,1.30
2022-11-13T08:32:41.245Z,1.98
2022-11-13T08:35:29.569Z,2.58
2022-11-13T08:38:16.479Z,2.50
2022-11-13T08:41:08.988Z,1.33
2022-11-13T08:44:12.566Z,3.60
2022-11-13T08:46:58.789Z,2.97
2022-11-13T08:49:45.007Z,2.05
2022-11-13T08:52:31.117Z,1.37
2022-11-13T08:55:17.574Z,2.70
2022-11-13T08:58:07.120Z,2.97
2022-11-13T09:00:53.317Z,2.90
2022-11-13T09:03:40.368Z,2.30
2022-11-13T09:06:26.410Z,1.55
2022-11-13T09:09:12.463Z,2.30
2022-11-13T09:11:58.451Z,3.33
2022-11-13T09:14:44.596Z,1.08
2022-11-13T09:17:31.485Z,1.10
2022-11-13T09:20:22.481Z,3.97
2022-11-13T09:23:09.646Z,3.00
2022-11-13T09:25:56.565Z,1.95
2022-11-13T09:28:43.396Z,2.08
2022-11-13T09:31:30.148Z,3.25
2022-11-13T09:34:16.356Z,2.25
2022-11-13T09:37:02.627Z,0.98
2022-11-13T09:39:48.792Z,3.90
2022-11-13T09:42:36.950Z,0.82
2022-11-13T09:45:23.386Z,5.05
2022-11-13T09:48:34.387Z,3.12
2022-11-13T09:51:25.062Z,2.58
2022-11-13T09:54:14.348Z,2.33
2022-11-13T09:57:37.289Z,2.25
2022-11-13T10:00:21.393Z,2.80
2022-11-13T10:03:54.107Z,3.05
2022-11-13T10:06:40.599Z,3.03
2022-11-13T10:09:33.643Z,2.17
2022-11-13T10:12:20.855Z,2.67
2022-11-13T10:15:10.395Z,3.65
2022-11-13T10:18:04.000Z,4.75
2022-11-13T10:20:54.266Z,2.95
2022-11-13T10:23:40.146Z,3.22
2022-11-13T10:26:28.880Z,1.67
2022-11-13T10:29:19.813Z,5.35
2022-11-13T10:32:26.974Z,3.70
2022-11-13T10:35:35.237Z,3.40
2022-11-13T10:38:30.519Z,3.12
2022-11-13T10:41:33.245Z,3.47
2022-11-13T10:44:27.223Z,1.65
2022-11-13T10:47:36.145Z,3.42
2022-11-13T10:50:22.366Z,2.00
2022-11-13T10:53:17.590Z,3.12
2022-11-13T10:56:13.340Z,2.30
2022-11-13T10:59:13.907Z,5.12
2022-11-13T11:02:11.760Z,3.00
2022-11-13T11:05:16.556Z,2.45
2022-11-13T11:08:09.189Z,4.35
2022-11-13T11:11:35.787Z,3.97
2022-11-13T11:14:42.637Z,3.67
2022-11-13T11:17:44.088Z,2.85
2022-11-13T11:21:01.451Z,3.87
2022-11-13T11:24:03.246Z,2.00
2022-11-13T11:27:03.973Z,3.85
2022-11-13T11:30:07.109Z,5.07
2022-11-13T11:33:01.226Z,4.53
2022-11-13T11:35:56.515Z,3.37
2022-11-13T11:38:53.307Z,4.25
2022-11-13T11:41:51.622Z,4.40
2022-11-13T11:45:10.884Z,6.85
2022-11-13T11:47:59.055Z,5.00
2022-11-13T11:50:57.040Z,5.50
2022-11-13T11:54:21.922Z,3.20
2022-11-13T11:57:33.564Z,6.12
2022-11-13T12:00:20.380Z,4.55
2022-11-13T12:03:35.125Z,4.72
2022-11-13T12:06:49.663Z,3.97
2022-11-13T12:09:51.473Z,3.00
2022-11-13T12:12:55.338Z,5.10
2022-11-13T12:15:51.010Z,4.93
2022-11-13T12:18:49.454Z,2.83
2022-11-13T12:21:52.702Z,3.92
2022-11-13T12:25:00.654Z,4.12
2022-11-13T12:28:08.115Z,3.42
2022-11-13T12:31:05.122Z,2.75
2022-11-13T12:34:01.893Z,4.22
2022-11-13T12:36:48.402Z,2.90
2022-11-13T12:40:00.649Z,1.92
2022-11-13T12:43:08.990Z,2.65
2022-11-13T12:45:58.379Z,3.15
2022-11-13T12:48:48.148Z,3.65
2022-11-13T12:51:54.540Z,3.20
2022-11-13T12:54:41.271Z,1.60
2022-11-13T12:57:30.674Z,1.90
2022-11-13T13:00:28.902Z,3.28
2022-11-13T13:03:42.987Z,1.73
2022-11-13T13:07:02.313Z,2.87
2022-11-13T13:09:51.068Z,1.60
2022-11-13T13:12:58.556Z,3.05
2022-11-13T13:15:43.960Z,2.55
2022-11-13T13:18:42.735Z,1.62
2022-11-13T13:21:41.049Z,2.53
2022-11-13T13:24:36.361Z,1.83
2022-11-13T13:27:28.005Z,2.75
2022-11-13T13:30:44.994Z,1.37
2022-11-13T13:33:44.715Z,1.73
2022-11-13T13:36:39.524Z,2.72
2022-11-13T13:39:33.817Z,2.75
2022-11-13T13:42:54.072Z,2.87
2022-11-13T13:46:18.267Z,2.67
2022-11-13T13:49:09.437Z,2.90
2022-11-13T13:51:57.309Z,2.58
2022-11-13T13:54:45.402Z,2.28
2022-11-13T13:57:31.343Z,2.50
2022-11-13T14:00:19.190Z,2.62
2022-11-13T14:03:16.997Z,2.30
2022-11-13T14:06:25.478Z,5.25
2022-11-13T14:09:18.247Z,4.90
2022-11-13T14:12:18.394Z,3.62
2022-11-13T14:15:25.707Z,1.92
2022-11-13T14:18:22.574Z,4.00
2022-11-13T14:21:26.760Z,2.50
2022-11-13T14:24:34.725Z,4.03
2022-11-13T14:27:24.699Z,3.08
2022-11-13T14:30:22.161Z,3.40
2022-11-13T14:33:10.702Z,3.33
2022-11-13T14:35:57.825Z,2.95
2022-11-13T14:38:51.774Z,5.10
2022-11-13T14:41:46.299Z,4.95
2022-11-13T14:44:34.377Z,3.75
2022-11-13T14:47:26.594Z,4.00
2022-11-13T14:50:23.101Z,2.45
2022-11-13T14:53:10.502Z,5.07
2022-11-13T14:55:59.222Z,3.22
2022-11-13T14:58:49.238Z,5.05
2022-11-13T15:01:35.579Z,3.87
2022-11-13T15:04:21.877Z,2.50
2022-11-13T15:07:32.243Z,4.75
2022-11-13T15:10:20.026Z,4.00
2022-11-13T15:13:17.639Z,2.78
2022-11-13T15:16:04.217Z,4.80
2022-11-13T15:19:06.318Z,1.87
2022-11-13T15:22:25.118Z,2.28
2022-11-13T15:24:58.577Z,3.65
2022-11-13T15:27:44.752Z,2.87
2022-11-13T15:30:30.972Z,2.62
2022-11-13T15:33:17.355Z,3.47
2022-11-13T15:36:03.841Z,1.55
2022-11-13T15:38:49.856Z,1.83
2022-11-13T15:41:36.458Z,2.85
2022-11-13T15:44:22.539Z,2.65
2022-11-13T15:47:31.049Z,1.75
2022-11-13T15:50:17.423Z,3.30
2022-11-13T15:53:05.407Z,3.62
2022-11-13T15:58:48.887Z,2.55
2022-11-13T16:01:35.513Z,3.42
2022-11-13T16:07:23.386Z,3.28
2022-11-13T16:10:10.582Z,4.32
2022-11-13T16:12:56.776Z,3.60
2022-11-13T16:15:43.034Z,6.45
2022-11-13T16:18:31.435Z,5.50
2022-11-13T16:21:18.850Z,3.78
2022-11-13T16:24:05.393Z,4.30
2022-11-13T16:26:55.799Z,6.50
2022-11-13T16:29:41.711Z,4.15
2022-11-13T16:32:28.231Z,5.60
2022-11-13T16:35:19.217Z,5.22
2022-11-13T16:38:12.901Z,3.53
2022-11-13T16:40:58.931Z,11.18
2022-11-13T16:43:45.308Z,9.70
2022-11-13T16:46:36.379Z,8.35
2022-11-13T16:49:22.323Z,11.95
2022-11-13T16:52:10.580Z,8.75
2022-11-13T16:54:56.666Z,3.95
2022-11-13T16:57:43.293Z,3.85
2022-11-13T17:00:29.799Z,3.35
2022-11-13T17:03:15.648Z,4.43
2022-11-13T17:06:01.955Z,3.58
2022-11-13T17:08:52.313Z,3.53
2022-11-13T17:11:38.572Z,5.37
2022-11-13T17:14:24.692Z,5.75
2022-11-13T17:17:13.435Z,6.18
2022-11-13T17:19:59.595Z,3.55
2022-11-13T17:22:48.609Z,2.45
2022-11-13T17:25:34.674Z,3.83
2022-11-13T17:28:21.214Z,4.32
2022-11-13T17:31:09.741Z,4.37
2022-11-13T17:33:55.952Z,3.22
2022-11-13T17:36:43.430Z,12.93
2022-11-13T17:39:29.470Z,12.57
2022-11-13T17:42:15.690Z,14.10
2022-11-13T17:45:02.227Z,16.25
2022-11-13T17:47:50.042Z,5.60
2022-11-13T17:50:36.401Z,3.60
2022-11-13T17:53:22.595Z,13.35
2022-11-13T17:56:11.777Z,10.82
2022-11-13T17:58:57.841Z,15.55
2022-11-13T18:01:44.196Z,8.27
2022-11-13T18:04:31.844Z,8.43
2022-11-13T18:07:17.952Z,8.52
2022-11-13T18:10:04.455Z,7.32
2022-11-13T18:12:50.295Z,6.72
2022-11-13T18:15:39.036Z,3.75
2022-11-13T18:18:25.332Z,2.25
2022-11-13T18:21:24.899Z,3.78
2022-11-13T18:24:17.332Z,4.00
2022-11-13T18:27:06.108Z,2.72
2022-11-13T18:29:52.615Z,2.22
2022-11-13T18:32:39.074Z,4.10
2022-11-13T18:35:29.849Z,5.37
2022-11-13T18:38:15.973Z,4.80
2022-11-13T18:41:09.269Z,5.28
2022-11-13T18:43:51.895Z,4.45
2022-11-13T18:46:34.449Z,3.67
2022-11-13T18:49:16.369Z,4.18
2022-11-13T18:51:58.279Z,2.45
2022-11-13T18:54:40.341Z,3.50
2022-11-13T18:57:22.350Z,5.00
2022-11-13T19:00:05.705Z,6.30
2022-11-13T19:02:50.145Z,5.40
2022-11-13T19:05:32.256Z,4.05
2022-11-13T19:08:14.634Z,4.50
2022-11-13T19:11:03.718Z,4.72
2022-11-13T19:13:47.199Z,4.43
2022-11-13T19:16:33.885Z,5.30
2022-11-13T19:19:18.916Z,3.62
2022-11-13T19:22:17.300Z,5.62
2022-11-13T19:24:59.336Z,4.65
2022-11-13T19:27:41.275Z,3.53
2022-11-13T19:30:23.318Z,4.20
2022-11-13T19:33:05.315Z,4.07
2022-11-13T19:35:47.519Z,3.65
2022-11-13T19:38:55.168Z,2.40
2022-11-13T19:41:42.139Z,6.90
2022-11-13T19:44:38.883Z,6.87
2022-11-13T19:47:27.276Z,6.97
2022-11-13T19:50:33.832Z,5.07
2022-11-13T19:53:22.420Z,4.90
2022-11-13T19:56:06.913Z,4.55
2022-11-13T19:58:53.062Z,4.07
2022-11-13T20:01:40.045Z,3.75
2022-11-13T20:04:23.351Z,3.08
2022-11-13T20:07:29.907Z,3.87
2022-11-13T20:10:26.399Z,4.10
2022-11-13T20:13:12.697Z,3.22
2022-11-13T20:15:58.831Z,3.17
2022-11-13T20:18:45.025Z,3.37
2022-11-13T20:21:40.414Z,4.00
2022-11-13T20:24:26.559Z,6.87
2022-11-13T20:27:12.581Z,6.82
2022-11-13T20:29:59.052Z,6.78
2022-11-13T20:32:45.405Z,5.37
2022-11-13T20:38:34.995Z,6.22
2022-11-13T20:41:21.901Z,4.37
2022-11-13T20:44:08.099Z,4.75
2022-11-13T20:47:15.926Z,6.72
2022-11-13T20:50:07.697Z,6.50
2022-11-13T20:52:53.727Z,9.73
2022-11-13T20:55:39.906Z,6.75
2022-11-13T20:58:26.075Z,8.07
2022-11-13T21:01:23.434Z,5.12
2022-11-13T21:04:09.459Z,7.47
2022-11-13T21:06:55.680Z,7.20
2022-11-13T21:14:03.315Z,10.20
2022-11-13T21:16:49.255Z,8.27
2022-11-13T21:19:35.899Z,7.90
2022-11-13T21:26:45.082Z,6.50
2022-11-13T21:29:31.263Z,9.90
2022-11-13T21:32:20.468Z,11.52
2022-11-13T21:35:02.248Z,7.93
2022-11-13T21:37:44.310Z,7.45
2022-11-13T21:40:37.274Z,8.52
2022-11-13T21:43:25.054Z,6.47
2022-11-13T21:46:07.443Z,6.12
2022-11-13T21:49:19.873Z,6.25
2022-11-13T21:52:06.361Z,2.00
2022-11-13T21:54:51.300Z,3.22
2022-11-13T21:57:37.978Z,1.62
2022-11-13T22:00:24.101Z,2.47
2022-11-13T22:03:10.290Z,4.35
2022-11-13T22:06:16.493Z,1.73
2022-11-13T22:09:05.283Z,1.92
2022-11-13T22:11:51.724Z,3.72
2022-11-13T22:14:37.829Z,1.23
2022-11-13T22:17:23.920Z,3.45
2022-11-13T22:20:10.158Z,1.55
2022-11-13T22:22:56.392Z,2.92
2022-11-13T22:25:42.333Z,1.87
2022-11-13T22:28:29.059Z,2.47
2022-11-13T22:31:23.624Z,4.47
2022-11-13T22:34:09.853Z,1.23
2022-11-13T22:36:55.962Z,2.15
2022-11-13T22:39:42.035Z,1.55
2022-11-13T22:42:28.076Z,1.95
2022-11-13T22:45:23.426Z,2.12
2022-11-13T22:48:11.092Z,2.70
2022-11-13T22:50:57.353Z,1.70
2022-11-13T22:53:47.661Z,0.82
2022-11-13T22:56:34.948Z,2.70
2022-11-13T22:59:21.379Z,1.15
2022-11-13T23:02:07.874Z,1.27
2022-11-13T23:04:54.010Z,4.05
2022-11-13T23:07:40.369Z,3.00
2022-11-13T23:10:30.250Z,0.88
2022-11-13T23:13:17.793Z,2.97
2022-11-13T23:16:03.926Z,1.55
2022-11-13T23:21:45.798Z,0.77
2022-11-13T23:24:43.664Z,1.58
2022-11-13T23:27:30.685Z,0.93
2022-11-13T23:30:16.363Z,1.52
2022-11-13T23:33:02.452Z,0.70
2022-11-13T23:35:53.745Z,1.83
2022-11-13T23:38:41.301Z,0.95
2022-11-13T23:41:27.579Z,1.27
2022-11-13T23:44:13.764Z,1.25
2022-11-13T23:47:07.994Z,0.50
2022-11-13T23:49:54.130Z,0.77
2022-11-13T23:52:40.158Z,2.15
2022-11-13T23:55:26.399Z,0.85
2022-11-13T23:58:14.692Z,2.15
